Alberto Delgado Airport


Codes: MUTD/TND
Name: Alberto Delgado Airport
City: Trinidad
Country: Cuba
Elevation: 125 ft.

Photos at Alberto Delgado Airport


   Photos courtesy of SpottingLog. You can add your own sightings and photos by signing up for a free trial today.



No photos found.

Weather at Alberto Delgado Airport


Time (UTC)DescriptionTempratureWindCloud coverageVisibilityPressureHumidity
17-Jun-2024 06:00Overcast Clouds26°C11 mph, NE100%10000m1014hPa83%
17-Jun-2024 09:00Overcast Clouds26°C11 mph, NE100%10000m1013hPa86%
17-Jun-2024 12:00Overcast Clouds26°C13 mph, E100%10000m1013hPa87%
17-Jun-2024 15:00Overcast Clouds29°C13 mph, E100%10000m1014hPa72%
17-Jun-2024 18:00Overcast Clouds31°C13 mph, SE100%10000m1013hPa64%
17-Jun-2024 21:00Light Rain30°C9 mph, SE100%10000m1011hPa69%
18-Jun-2024 00:00Overcast Clouds28°C4 mph, SE100%10000m1012hPa77%
18-Jun-2024 03:00Light Rain27°C9 mph, NE95%10000m1013hPa81%
18-Jun-2024 06:00Overcast Clouds26°C9 mph, NE98%10000m1012hPa85%
18-Jun-2024 09:00Overcast Clouds25°C9 mph, NE99%10000m1012hPa89%
18-Jun-2024 12:00Overcast Clouds26°C9 mph, NE99%10000m1012hPa89%
18-Jun-2024 15:00Overcast Clouds28°C11 mph, E99%10000m1013hPa76%
18-Jun-2024 18:00Light Rain30°C11 mph, SE99%10000m1011hPa71%
18-Jun-2024 21:00Light Rain29°C9 mph, SE100%10000m1010hPa74%
19-Jun-2024 00:00Light Rain28°C7 mph, E100%10000m1011hPa80%
19-Jun-2024 03:00Light Rain27°C7 mph, E90%10000m1012hPa82%
19-Jun-2024 06:00Light Rain26°C9 mph, NE85%10000m1012hPa87%
19-Jun-2024 09:00Light Rain25°C9 mph, NE24%10000m1012hPa91%
19-Jun-2024 12:00Light Rain26°C9 mph, NE19%10000m1012hPa89%
19-Jun-2024 15:00Clear Sky29°C11 mph, E0%10000m1013hPa71%
19-Jun-2024 18:00Light Rain30°C13 mph, SE0%10000m1012hPa67%
19-Jun-2024 21:00Moderate Rain29°C9 mph, E15%10000m1010hPa69%
20-Jun-2024 00:00Moderate Rain28°C9 mph, NE58%7290m1011hPa77%
20-Jun-2024 03:00Light Rain25°C11 mph, NE94%10000m1013hPa85%
20-Jun-2024 06:00Overcast Clouds25°C7 mph, NE98%10000m1012hPa77%
20-Jun-2024 09:00Light Rain25°C7 mph, NE99%10000m1011hPa81%
20-Jun-2024 12:00Overcast Clouds26°C7 mph, NE86%10000m1013hPa80%
20-Jun-2024 15:00Broken Clouds29°C9 mph, E66%10000m1014hPa71%
20-Jun-2024 18:00Broken Clouds30°C9 mph, SE62%10000m1014hPa67%
20-Jun-2024 21:00Light Rain30°C7 mph, SE14%10000m1012hPa63%
21-Jun-2024 00:00Light Rain28°C7 mph, SE25%10000m1013hPa74%
21-Jun-2024 03:00Moderate Rain24°C9 mph, NE100%10000m1016hPa90%
21-Jun-2024 06:00Overcast Clouds25°C7 mph, NE100%10000m1015hPa83%
21-Jun-2024 09:00Overcast Clouds25°C7 mph, NE99%10000m1013hPa78%
21-Jun-2024 12:00Light Rain25°C7 mph, NE86%10000m1015hPa80%
21-Jun-2024 15:00Light Rain29°C13 mph, E100%10000m1015hPa67%
21-Jun-2024 18:00Light Rain28°C16 mph, E100%10000m1015hPa77%
21-Jun-2024 21:00Light Rain28°C11 mph, E100%10000m1014hPa80%
22-Jun-2024 00:00Light Rain27°C13 mph, E100%10000m1015hPa81%
22-Jun-2024 03:00Light Rain26°C13 mph, E100%10000m1016hPa87%